sensor_id;sensor_type;location;lat;lon;timestamp;temperature;humidity
10344;DHT22;5217;43.960;10.954;2023-03-05T00:01:21;15.20;65.60
10344;DHT22;5217;43.960;10.954;2023-03-05T00:03:53;15.20;65.50
10344;DHT22;5217;43.960;10.954;2023-03-05T00:06:22;15.20;65.80
10344;DHT22;5217;43.960;10.954;2023-03-05T00:08:51;15.20;66.00
10344;DHT22;5217;43.960;10.954;2023-03-05T00:11:21;15.10;66.40
10344;DHT22;5217;43.960;10.954;2023-03-05T00:13:50;15.10;66.50
10344;DHT22;5217;43.960;10.954;2023-03-05T00:16:20;15.10;66.70
10344;DHT22;5217;43.960;10.954;2023-03-05T00:18:48;15.00;66.70
10344;DHT22;5217;43.960;10.954;2023-03-05T00:21:23;15.00;66.70
10344;DHT22;5217;43.960;10.954;2023-03-05T00:23:52;15.00;67.00
10344;DHT22;5217;43.960;10.954;2023-03-05T00:26:22;15.00;67.10
10344;DHT22;5217;43.960;10.954;2023-03-05T00:28:52;15.00;67.20
10344;DHT22;5217;43.960;10.954;2023-03-05T00:31:22;14.90;67.20
10344;DHT22;5217;43.960;10.954;2023-03-05T00:33:51;14.90;67.10
10344;DHT22;5217;43.960;10.954;2023-03-05T00:36:21;14.80;67.00
10344;DHT22;5217;43.960;10.954;2023-03-05T00:38:50;14.90;67.50
10344;DHT22;5217;43.960;10.954;2023-03-05T00:41:18;14.80;67.60
10344;DHT22;5217;43.960;10.954;2023-03-05T00:43:47;14.80;67.50
10344;DHT22;5217;43.960;10.954;2023-03-05T00:46:16;14.80;67.40
10344;DHT22;5217;43.960;10.954;2023-03-05T00:48:44;14.80;67.50
10344;DHT22;5217;43.960;10.954;2023-03-05T00:51:13;14.80;67.80
10344;DHT22;5217;43.960;10.954;2023-03-05T00:53:42;14.80;67.90
10344;DHT22;5217;43.960;10.954;2023-03-05T00:56:11;14.70;67.70
10344;DHT22;5217;43.960;10.954;2023-03-05T00:58:39;14.70;67.60
10344;DHT22;5217;43.960;10.954;2023-03-05T01:01:08;14.70;67.50
10344;DHT22;5217;43.960;10.954;2023-03-05T01:03:36;14.70;67.80
10344;DHT22;5217;43.960;10.954;2023-03-05T01:06:06;14.70;68.10
10344;DHT22;5217;43.960;10.954;2023-03-05T01:08:35;14.70;68.30
10344;DHT22;5217;43.960;10.954;2023-03-05T01:11:06;14.60;68.30
10344;DHT22;5217;43.960;10.954;2023-03-05T01:13:35;14.60;68.40
10344;DHT22;5217;43.960;10.954;2023-03-05T01:16:04;14.60;68.70
10344;DHT22;5217;43.960;10.954;2023-03-05T01:18:32;14.50;68.80
10344;DHT22;5217;43.960;10.954;2023-03-05T01:21:02;14.50;68.80
10344;DHT22;5217;43.960;10.954;2023-03-05T01:23:31;14.50;69.00
10344;DHT22;5217;43.960;10.954;2023-03-05T01:26:00;14.40;68.80
10344;DHT22;5217;43.960;10.954;2023-03-05T01:28:30;14.40;68.80
10344;DHT22;5217;43.960;10.954;2023-03-05T01:30:58;14.40;68.70
10344;DHT22;5217;43.960;10.954;2023-03-05T01:33:26;14.40;68.90
10344;DHT22;5217;43.960;10.954;2023-03-05T01:35:55;14.40;69.30
10344;DHT22;5217;43.960;10.954;2023-03-05T01:38:23;14.30;69.20
10344;DHT22;5217;43.960;10.954;2023-03-05T01:40:51;14.20;69.30
10344;DHT22;5217;43.960;10.954;2023-03-05T01:43:25;14.20;69.60
10344;DHT22;5217;43.960;10.954;2023-03-05T01:46:22;14.20;69.70
10344;DHT22;5217;43.960;10.954;2023-03-05T01:48:55;14.20;70.00
10344;DHT22;5217;43.960;10.954;2023-03-05T01:51:28;14.20;70.10
10344;DHT22;5217;43.960;10.954;2023-03-05T01:53:58;14.10;70.20
10344;DHT22;5217;43.960;10.954;2023-03-05T01:56:28;14.10;70.40
10344;DHT22;5217;43.960;10.954;2023-03-05T01:58:59;14.10;70.50
10344;DHT22;5217;43.960;10.954;2023-03-05T02:01:38;14.10;70.40
10344;DHT22;5217;43.960;10.954;2023-03-05T02:04:08;14.00;70.40
10344;DHT22;5217;43.960;10.954;2023-03-05T02:06:38;14.00;70.50
10344;DHT22;5217;43.960;10.954;2023-03-05T02:09:06;14.00;70.70
10344;DHT22;5217;43.960;10.954;2023-03-05T02:11:35;14.00;70.90
10344;DHT22;5217;43.960;10.954;2023-03-05T02:14:04;13.90;71.00
10344;DHT22;5217;43.960;10.954;2023-03-05T02:16:37;13.90;71.10
10344;DHT22;5217;43.960;10.954;2023-03-05T02:19:08;13.90;71.10
10344;DHT22;5217;43.960;10.954;2023-03-05T02:21:41;13.90;71.10
10344;DHT22;5217;43.960;10.954;2023-03-05T02:24:11;13.90;71.00
10344;DHT22;5217;43.960;10.954;2023-03-05T02:26:40;13.80;71.00
10344;DHT22;5217;43.960;10.954;2023-03-05T02:29:13;13.80;71.10
10344;DHT22;5217;43.960;10.954;2023-03-05T02:31:44;13.80;71.50
10344;DHT22;5217;43.960;10.954;2023-03-05T02:34:13;13.80;71.90
10344;DHT22;5217;43.960;10.954;2023-03-05T02:36:43;13.80;72.20
10344;DHT22;5217;43.960;10.954;2023-03-05T02:39:11;13.70;72.10
10344;DHT22;5217;43.960;10.954;2023-03-05T02:41:39;13.70;72.20
10344;DHT22;5217;43.960;10.954;2023-03-05T02:44:08;13.70;72.20
10344;DHT22;5217;43.960;10.954;2023-03-05T02:46:36;13.70;72.20
10344;DHT22;5217;43.960;10.954;2023-03-05T02:49:05;13.60;72.10
10344;DHT22;5217;43.960;10.954;2023-03-05T02:51:33;13.60;72.10
10344;DHT22;5217;43.960;10.954;2023-03-05T02:54:03;13.60;72.10
10344;DHT22;5217;43.960;10.954;2023-03-05T02:56:31;13.60;72.10
10344;DHT22;5217;43.960;10.954;2023-03-05T02:59:00;13.60;72.10
10344;DHT22;5217;43.960;10.954;2023-03-05T03:01:28;13.60;72.10
10344;DHT22;5217;43.960;10.954;2023-03-05T03:03:56;13.50;72.30
10344;DHT22;5217;43.960;10.954;2023-03-05T03:06:25;13.50;72.30
10344;DHT22;5217;43.960;10.954;2023-03-05T03:08:53;13.50;72.30
10344;DHT22;5217;43.960;10.954;2023-03-05T03:11:23;13.50;72.60
10344;DHT22;5217;43.960;10.954;2023-03-05T03:13:51;13.40;72.60
10344;DHT22;5217;43.960;10.954;2023-03-05T03:16:20;13.40;72.60
10344;DHT22;5217;43.960;10.954;2023-03-05T03:18:48;13.40;72.70
10344;DHT22;5217;43.960;10.954;2023-03-05T03:21:18;13.40;72.70
10344;DHT22;5217;43.960;10.954;2023-03-05T03:23:47;13.40;72.80
10344;DHT22;5217;43.960;10.954;2023-03-05T03:26:15;13.40;73.00
10344;DHT22;5217;43.960;10.954;2023-03-05T03:28:45;13.30;73.10
10344;DHT22;5217;43.960;10.954;2023-03-05T03:31:14;13.30;73.20
10344;DHT22;5217;43.960;10.954;2023-03-05T03:33:43;13.30;73.20
10344;DHT22;5217;43.960;10.954;2023-03-05T03:36:12;13.20;73.20
10344;DHT22;5217;43.960;10.954;2023-03-05T03:38:40;13.30;73.40
10344;DHT22;5217;43.960;10.954;2023-03-05T03:41:09;13.30;73.40
10344;DHT22;5217;43.960;10.954;2023-03-05T03:43:37;13.20;73.50
10344;DHT22;5217;43.960;10.954;2023-03-05T03:46:07;13.20;73.40
10344;DHT22;5217;43.960;10.954;2023-03-05T03:48:35;13.20;73.50
10344;DHT22;5217;43.960;10.954;2023-03-05T03:51:05;13.20;73.50
10344;DHT22;5217;43.960;10.954;2023-03-05T03:53:34;13.20;73.60
10344;DHT22;5217;43.960;10.954;2023-03-05T03:56:03;13.20;73.70
10344;DHT22;5217;43.960;10.954;2023-03-05T03:58:31;13.10;73.70
10344;DHT22;5217;43.960;10.954;2023-03-05T04:01:00;13.10;73.80
10344;DHT22;5217;43.960;10.954;2023-03-05T04:03:29;13.10;73.70
10344;DHT22;5217;43.960;10.954;2023-03-05T04:05:58;13.00;73.70
10344;DHT22;5217;43.960;10.954;2023-03-05T04:08:26;13.00;73.70
10344;DHT22;5217;43.960;10.954;2023-03-05T04:10:54;13.00;73.70
10344;DHT22;5217;43.960;10.954;2023-03-05T04:13:23;13.00;73.80
10344;DHT22;5217;43.960;10.954;2023-03-05T04:15:51;13.00;74.10
10344;DHT22;5217;43.960;10.954;2023-03-05T04:18:20;12.90;74.10
10344;DHT22;5217;43.960;10.954;2023-03-05T04:20:50;12.90;74.30
10344;DHT22;5217;43.960;10.954;2023-03-05T04:23:18;12.90;74.50
10344;DHT22;5217;43.960;10.954;2023-03-05T04:25:47;12.90;74.40
10344;DHT22;5217;43.960;10.954;2023-03-05T04:28:15;12.90;74.60
10344;DHT22;5217;43.960;10.954;2023-03-05T04:30:44;12.80;74.40
10344;DHT22;5217;43.960;10.954;2023-03-05T04:33:13;12.80;74.40
10344;DHT22;5217;43.960;10.954;2023-03-05T04:35:41;12.80;74.60
10344;DHT22;5217;43.960;10.954;2023-03-05T04:38:12;12.80;74.70
10344;DHT22;5217;43.960;10.954;2023-03-05T04:40:40;12.70;74.60
10344;DHT22;5217;43.960;10.954;2023-03-05T04:43:09;12.80;74.80
10344;DHT22;5217;43.960;10.954;2023-03-05T04:45:38;12.70;74.90
10344;DHT22;5217;43.960;10.954;2023-03-05T04:48:08;12.70;75.00
10344;DHT22;5217;43.960;10.954;2023-03-05T04:50:36;12.70;75.00
10344;DHT22;5217;43.960;10.954;2023-03-05T04:53:05;12.60;74.60
10344;DHT22;5217;43.960;10.954;2023-03-05T04:55:35;12.60;74.50
10344;DHT22;5217;43.960;10.954;2023-03-05T04:58:03;12.60;74.40
10344;DHT22;5217;43.960;10.954;2023-03-05T05:00:31;12.60;74.60
10344;DHT22;5217;43.960;10.954;2023-03-05T05:03:00;12.50;74.90
10344;DHT22;5217;43.960;10.954;2023-03-05T05:05:29;12.50;75.10
10344;DHT22;5217;43.960;10.954;2023-03-05T05:07:57;12.50;75.20
10344;DHT22;5217;43.960;10.954;2023-03-05T05:10:26;12.50;75.40
10344;DHT22;5217;43.960;10.954;2023-03-05T05:12:56;12.50;75.60
10344;DHT22;5217;43.960;10.954;2023-03-05T05:15:24;12.50;75.70
10344;DHT22;5217;43.960;10.954;2023-03-05T05:17:53;12.40;75.60
10344;DHT22;5217;43.960;10.954;2023-03-05T05:20:21;12.40;75.80
10344;DHT22;5217;43.960;10.954;2023-03-05T05:22:50;12.40;75.80
10344;DHT22;5217;43.960;10.954;2023-03-05T05:25:18;12.40;75.90
10344;DHT22;5217;43.960;10.954;2023-03-05T05:27:46;12.40;75.80
10344;DHT22;5217;43.960;10.954;2023-03-05T05:30:16;12.30;75.80
10344;DHT22;5217;43.960;10.954;2023-03-05T05:32:45;12.30;75.70
10344;DHT22;5217;43.960;10.954;2023-03-05T05:35:14;12.30;75.70
10344;DHT22;5217;43.960;10.954;2023-03-05T05:37:42;12.30;75.70
10344;DHT22;5217;43.960;10.954;2023-03-05T05:40:11;12.20;75.60
10344;DHT22;5217;43.960;10.954;2023-03-05T05:42:40;12.20;75.80
10344;DHT22;5217;43.960;10.954;2023-03-05T05:45:09;12.20;76.00
10344;DHT22;5217;43.960;10.954;2023-03-05T05:47:39;12.20;76.10
10344;DHT22;5217;43.960;10.954;2023-03-05T05:50:09;12.20;76.20
10344;DHT22;5217;43.960;10.954;2023-03-05T05:52:37;12.10;76.20
10344;DHT22;5217;43.960;10.954;2023-03-05T05:55:07;12.10;76.40
10344;DHT22;5217;43.960;10.954;2023-03-05T05:57:35;12.10;76.60
10344;DHT22;5217;43.960;10.954;2023-03-05T06:00:06;12.10;76.70
10344;DHT22;5217;43.960;10.954;2023-03-05T06:02:38;12.10;76.80
10344;DHT22;5217;43.960;10.954;2023-03-05T06:05:09;12.10;76.80
10344;DHT22;5217;43.960;10.954;2023-03-05T06:07:38;12.10;77.10
10344;DHT22;5217;43.960;10.954;2023-03-05T06:10:08;12.00;77.10
10344;DHT22;5217;43.960;10.954;2023-03-05T06:12:36;12.10;77.40
10344;DHT22;5217;43.960;10.954;2023-03-05T06:15:05;12.00;77.40
10344;DHT22;5217;43.960;10.954;2023-03-05T06:17:34;12.00;77.50
10344;DHT22;5217;43.960;10.954;2023-03-05T06:20:05;12.00;77.60
10344;DHT22;5217;43.960;10.954;2023-03-05T06:22:35;12.00;77.80
10344;DHT22;5217;43.960;10.954;2023-03-05T06:25:04;12.00;77.80
10344;DHT22;5217;43.960;10.954;2023-03-05T06:27:34;12.00;78.00
10344;DHT22;5217;43.960;10.954;2023-03-05T06:30:04;12.00;78.00
10344;DHT22;5217;43.960;10.954;2023-03-05T06:32:33;12.00;78.00
10344;DHT22;5217;43.960;10.954;2023-03-05T06:35:01;12.00;78.10
10344;DHT22;5217;43.960;10.954;2023-03-05T06:37:32;12.00;78.20
10344;DHT22;5217;43.960;10.954;2023-03-05T06:40:01;11.90;78.10
10344;DHT22;5217;43.960;10.954;2023-03-05T06:42:32;11.90;78.20
10344;DHT22;5217;43.960;10.954;2023-03-05T06:45:01;11.90;78.40
10344;DHT22;5217;43.960;10.954;2023-03-05T06:47:29;11.90;78.60
10344;DHT22;5217;43.960;10.954;2023-03-05T06:49:58;11.90;78.80
10344;DHT22;5217;43.960;10.954;2023-03-05T06:52:26;11.90;79.00
10344;DHT22;5217;43.960;10.954;2023-03-05T06:54:56;11.90;79.10
10344;DHT22;5217;43.960;10.954;2023-03-05T06:57:24;11.90;79.20
10344;DHT22;5217;43.960;10.954;2023-03-05T06:59:53;11.90;79.30
10344;DHT22;5217;43.960;10.954;2023-03-05T07:02:21;11.90;79.50
10344;DHT22;5217;43.960;10.954;2023-03-05T07:04:50;11.90;79.60
10344;DHT22;5217;43.960;10.954;2023-03-05T07:07:18;11.90;79.80
10344;DHT22;5217;43.960;10.954;2023-03-05T07:09:46;11.80;79.80
10344;DHT22;5217;43.960;10.954;2023-03-05T07:12:17;11.80;80.00
10344;DHT22;5217;43.960;10.954;2023-03-05T07:14:45;11.80;80.00
10344;DHT22;5217;43.960;10.954;2023-03-05T07:17:14;11.80;80.00
10344;DHT22;5217;43.960;10.954;2023-03-05T07:19:42;11.80;80.00
10344;DHT22;5217;43.960;10.954;2023-03-05T07:22:11;11.80;80.00
10344;DHT22;5217;43.960;10.954;2023-03-05T07:24:39;11.80;80.10
10344;DHT22;5217;43.960;10.954;2023-03-05T07:27:07;11.80;80.30
10344;DHT22;5217;43.960;10.954;2023-03-05T07:29:37;11.80;80.30
10344;DHT22;5217;43.960;10.954;2023-03-05T07:32:06;11.80;80.30
10344;DHT22;5217;43.960;10.954;2023-03-05T07:34:36;11.80;80.30
10344;DHT22;5217;43.960;10.954;2023-03-05T07:37:04;11.80;80.20
10344;DHT22;5217;43.960;10.954;2023-03-05T07:39:33;11.80;80.30
10344;DHT22;5217;43.960;10.954;2023-03-05T07:42:01;11.90;80.30
10344;DHT22;5217;43.960;10.954;2023-03-05T07:44:30;11.90;80.40
10344;DHT22;5217;43.960;10.954;2023-03-05T07:47:00;12.00;80.50
10344;DHT22;5217;43.960;10.954;2023-03-05T07:49:28;12.00;80.30
10344;DHT22;5217;43.960;10.954;2023-03-05T07:51:56;12.10;80.50
10344;DHT22;5217;43.960;10.954;2023-03-05T07:54:25;12.10;80.60
10344;DHT22;5217;43.960;10.954;2023-03-05T07:56:53;12.10;80.80
10344;DHT22;5217;43.960;10.954;2023-03-05T07:59:22;12.20;80.90
10344;DHT22;5217;43.960;10.954;2023-03-05T08:01:50;12.30;81.00
10344;DHT22;5217;43.960;10.954;2023-03-05T08:04:20;12.30;81.10
10344;DHT22;5217;43.960;10.954;2023-03-05T08:06:48;12.40;81.20
10344;DHT22;5217;43.960;10.954;2023-03-05T08:09:17;12.40;80.80
10344;DHT22;5217;43.960;10.954;2023-03-05T08:11:46;12.40;80.30
10344;DHT22;5217;43.960;10.954;2023-03-05T08:14:14;12.50;80.70
10344;DHT22;5217;43.960;10.954;2023-03-05T08:16:43;12.50;81.20
10344;DHT22;5217;43.960;10.954;2023-03-05T08:19:14;12.60;81.60
10344;DHT22;5217;43.960;10.954;2023-03-05T08:21:44;12.70;81.70
10344;DHT22;5217;43.960;10.954;2023-03-05T08:24:13;12.70;81.80
10344;DHT22;5217;43.960;10.954;2023-03-05T08:26:42;12.80;80.90
10344;DHT22;5217;43.960;10.954;2023-03-05T08:29:10;12.80;80.10
10344;DHT22;5217;43.960;10.954;2023-03-05T08:31:38;12.90;80.20
10344;DHT22;5217;43.960;10.954;2023-03-05T08:34:07;12.90;80.10
10344;DHT22;5217;43.960;10.954;2023-03-05T08:36:35;12.90;80.00
10344;DHT22;5217;43.960;10.954;2023-03-05T08:39:05;13.00;80.70
10344;DHT22;5217;43.960;10.954;2023-03-05T08:41:34;13.00;80.80
10344;DHT22;5217;43.960;10.954;2023-03-05T08:44:03;13.10;80.60
10344;DHT22;5217;43.960;10.954;2023-03-05T08:46:32;13.10;80.10
10344;DHT22;5217;43.960;10.954;2023-03-05T08:49:00;13.20;80.00
10344;DHT22;5217;43.960;10.954;2023-03-05T08:51:29;13.20;79.60
10344;DHT22;5217;43.960;10.954;2023-03-05T08:53:57;13.30;80.00
10344;DHT22;5217;43.960;10.954;2023-03-05T08:56:27;13.40;80.90
10344;DHT22;5217;43.960;10.954;2023-03-05T08:58:57;13.40;81.00
10344;DHT22;5217;43.960;10.954;2023-03-05T09:01:25;13.50;80.90
10344;DHT22;5217;43.960;10.954;2023-03-05T09:03:54;13.50;81.20
10344;DHT22;5217;43.960;10.954;2023-03-05T09:06:22;13.60;80.80
10344;DHT22;5217;43.960;10.954;2023-03-05T09:08:51;13.60;80.20
10344;DHT22;5217;43.960;10.954;2023-03-05T09:11:20;13.70;79.70
10344;DHT22;5217;43.960;10.954;2023-03-05T09:13:50;13.70;79.00
10344;DHT22;5217;43.960;10.954;2023-03-05T09:16:20;13.80;78.60
10344;DHT22;5217;43.960;10.954;2023-03-05T09:18:48;13.80;78.60
10344;DHT22;5217;43.960;10.954;2023-03-05T09:21:17;13.80;78.50
10344;DHT22;5217;43.960;10.954;2023-03-05T09:23:45;13.90;78.50
10344;DHT22;5217;43.960;10.954;2023-03-05T09:26:15;13.90;78.10
10344;DHT22;5217;43.960;10.954;2023-03-05T09:28:45;14.00;78.70
10344;DHT22;5217;43.960;10.954;2023-03-05T09:31:15;14.10;79.30
10344;DHT22;5217;43.960;10.954;2023-03-05T09:33:44;14.10;79.00
10344;DHT22;5217;43.960;10.954;2023-03-05T09:36:18;14.20;79.50
10344;DHT22;5217;43.960;10.954;2023-03-05T09:38:47;14.20;79.60
10344;DHT22;5217;43.960;10.954;2023-03-05T09:41:22;14.30;80.10
10344;DHT22;5217;43.960;10.954;2023-03-05T09:43:57;14.40;80.70
10344;DHT22;5217;43.960;10.954;2023-03-05T09:46:42;14.50;81.20
10344;DHT22;5217;43.960;10.954;2023-03-05T09:49:16;14.50;81.00
10344;DHT22;5217;43.960;10.954;2023-03-05T09:51:51;14.60;80.80
10344;DHT22;5217;43.960;10.954;2023-03-05T09:54:26;14.60;81.20
10344;DHT22;5217;43.960;10.954;2023-03-05T09:57:01;14.70;81.50
10344;DHT22;5217;43.960;10.954;2023-03-05T09:59:33;14.60;79.80
10344;DHT22;5217;43.960;10.954;2023-03-05T10:02:14;14.70;79.90
10344;DHT22;5217;43.960;10.954;2023-03-05T10:04:46;14.70;80.20
10344;DHT22;5217;43.960;10.954;2023-03-05T10:07:18;14.90;80.30
10344;DHT22;5217;43.960;10.954;2023-03-05T10:09:53;14.90;80.20
10344;DHT22;5217;43.960;10.954;2023-03-05T10:12:26;14.90;80.00
10344;DHT22;5217;43.960;10.954;2023-03-05T10:14:57;14.90;79.70
10344;DHT22;5217;43.960;10.954;2023-03-05T10:17:46;15.00;79.30
10344;DHT22;5217;43.960;10.954;2023-03-05T10:23:29;15.20;79.20
10344;DHT22;5217;43.960;10.954;2023-03-05T10:28:49;15.20;78.60
10344;DHT22;5217;43.960;10.954;2023-03-05T10:31:38;15.30;78.20
10344;DHT22;5217;43.960;10.954;2023-03-05T10:34:22;15.40;79.20
10344;DHT22;5217;43.960;10.954;2023-03-05T10:40:01;15.50;80.30
10344;DHT22;5217;43.960;10.954;2023-03-05T10:42:42;15.60;81.00
10344;DHT22;5217;43.960;10.954;2023-03-05T10:45:16;15.70;80.60
10344;DHT22;5217;43.960;10.954;2023-03-05T10:47:49;15.70;80.90
10344;DHT22;5217;43.960;10.954;2023-03-05T10:50:24;15.80;81.10
10344;DHT22;5217;43.960;10.954;2023-03-05T10:53:06;15.80;81.30
10344;DHT22;5217;43.960;10.954;2023-03-05T10:55:40;15.90;81.50
10344;DHT22;5217;43.960;10.954;2023-03-05T10:58:10;16.00;82.10
10344;DHT22;5217;43.960;10.954;2023-03-05T11:00:40;16.00;82.80
10344;DHT22;5217;43.960;10.954;2023-03-05T11:03:24;16.00;82.80
10344;DHT22;5217;43.960;10.954;2023-03-05T11:06:00;16.10;82.60
10344;DHT22;5217;43.960;10.954;2023-03-05T11:08:30;16.20;82.70
10344;DHT22;5217;43.960;10.954;2023-03-05T11:11:15;16.30;83.20
10344;DHT22;5217;43.960;10.954;2023-03-05T11:13:52;16.30;83.50
10344;DHT22;5217;43.960;10.954;2023-03-05T11:16:23;16.40;83.50
10344;DHT22;5217;43.960;10.954;2023-03-05T11:19:20;16.40;83.50
10344;DHT22;5217;43.960;10.954;2023-03-05T11:22:07;16.50;84.30
10344;DHT22;5217;43.960;10.954;2023-03-05T11:24:40;16.60;84.40
10344;DHT22;5217;43.960;10.954;2023-03-05T11:27:31;16.70;83.70
10344;DHT22;5217;43.960;10.954;2023-03-05T11:30:02;16.70;84.70
10344;DHT22;5217;43.960;10.954;2023-03-05T11:32:31;16.80;84.80
10344;DHT22;5217;43.960;10.954;2023-03-05T11:35:00;16.90;85.40
10344;DHT22;5217;43.960;10.954;2023-03-05T11:37:31;17.00;85.30
10344;DHT22;5217;43.960;10.954;2023-03-05T11:40:17;17.10;85.60
10344;DHT22;5217;43.960;10.954;2023-03-05T11:42:53;17.20;85.80
10344;DHT22;5217;43.960;10.954;2023-03-05T11:45:24;17.30;86.20
10344;DHT22;5217;43.960;10.954;2023-03-05T11:47:56;17.50;85.70
10344;DHT22;5217;43.960;10.954;2023-03-05T11:50:27;17.60;86.20
10344;DHT22;5217;43.960;10.954;2023-03-05T11:53:01;17.70;86.00
10344;DHT22;5217;43.960;10.954;2023-03-05T11:55:35;17.80;85.30
10344;DHT22;5217;43.960;10.954;2023-03-05T11:58:24;17.90;85.90
10344;DHT22;5217;43.960;10.954;2023-03-05T12:00:55;18.10;86.20
10344;DHT22;5217;43.960;10.954;2023-03-05T12:03:28;18.20;86.10
10344;DHT22;5217;43.960;10.954;2023-03-05T12:06:02;18.30;86.80
10344;DHT22;5217;43.960;10.954;2023-03-05T12:08:39;18.50;86.60
10344;DHT22;5217;43.960;10.954;2023-03-05T12:11:14;18.60;86.80
10344;DHT22;5217;43.960;10.954;2023-03-05T12:13:46;18.70;86.50
10344;DHT22;5217;43.960;10.954;2023-03-05T12:16:26;18.70;86.20
10344;DHT22;5217;43.960;10.954;2023-03-05T12:19:01;18.90;87.40
10344;DHT22;5217;43.960;10.954;2023-03-05T12:21:33;18.90;86.50
10344;DHT22;5217;43.960;10.954;2023-03-05T12:24:35;19.00;87.20
10344;DHT22;5217;43.960;10.954;2023-03-05T12:27:13;19.20;87.10
10344;DHT22;5217;43.960;10.954;2023-03-05T12:29:44;19.40;88.40
10344;DHT22;5217;43.960;10.954;2023-03-05T12:35:36;19.80;86.50
10344;DHT22;5217;43.960;10.954;2023-03-05T12:38:27;19.90;86.60
10344;DHT22;5217;43.960;10.954;2023-03-05T12:41:32;20.20;87.60
10344;DHT22;5217;43.960;10.954;2023-03-05T12:44:21;20.00;85.80
10344;DHT22;5217;43.960;10.954;2023-03-05T12:47:14;20.20;86.70
10344;DHT22;5217;43.960;10.954;2023-03-05T12:49:46;20.30;86.20
10344;DHT22;5217;43.960;10.954;2023-03-05T12:52:26;20.20;85.60
10344;DHT22;5217;43.960;10.954;2023-03-05T12:55:02;20.20;85.80
10344;DHT22;5217;43.960;10.954;2023-03-05T12:57:36;20.40;85.60
10344;DHT22;5217;43.960;10.954;2023-03-05T13:00:09;20.60;84.70
10344;DHT22;5217;43.960;10.954;2023-03-05T13:02:40;20.80;84.70
10344;DHT22;5217;43.960;10.954;2023-03-05T13:05:19;21.00;84.20
10344;DHT22;5217;43.960;10.954;2023-03-05T13:07:48;21.10;83.80
10344;DHT22;5217;43.960;10.954;2023-03-05T13:10:22;21.20;82.40
10344;DHT22;5217;43.960;10.954;2023-03-05T13:12:54;21.40;82.50
10344;DHT22;5217;43.960;10.954;2023-03-05T13:15:25;21.50;82.10
10344;DHT22;5217;43.960;10.954;2023-03-05T13:17:55;21.50;81.20
10344;DHT22;5217;43.960;10.954;2023-03-05T13:20:34;21.60;81.50
10344;DHT22;5217;43.960;10.954;2023-03-05T13:23:20;21.60;80.70
10344;DHT22;5217;43.960;10.954;2023-03-05T13:25:57;21.60;79.70
10344;DHT22;5217;43.960;10.954;2023-03-05T13:28:28;21.60;80.60
10344;DHT22;5217;43.960;10.954;2023-03-05T13:30:58;21.70;80.80
10344;DHT22;5217;43.960;10.954;2023-03-05T13:33:28;21.70;81.10
10344;DHT22;5217;43.960;10.954;2023-03-05T13:35:57;21.70;80.70
10344;DHT22;5217;43.960;10.954;2023-03-05T13:38:29;21.70;80.70
10344;DHT22;5217;43.960;10.954;2023-03-05T13:41:04;21.70;79.80
10344;DHT22;5217;43.960;10.954;2023-03-05T13:43:41;21.70;79.10
10344;DHT22;5217;43.960;10.954;2023-03-05T13:46:10;21.70;80.40
10344;DHT22;5217;43.960;10.954;2023-03-05T13:48:39;21.70;80.30
10344;DHT22;5217;43.960;10.954;2023-03-05T13:51:07;21.70;80.60
10344;DHT22;5217;43.960;10.954;2023-03-05T13:53:37;21.80;80.80
10344;DHT22;5217;43.960;10.954;2023-03-05T13:56:11;21.80;80.80
10344;DHT22;5217;43.960;10.954;2023-03-05T13:58:47;21.80;80.10
10344;DHT22;5217;43.960;10.954;2023-03-05T14:01:27;21.90;79.60
10344;DHT22;5217;43.960;10.954;2023-03-05T14:03:57;21.90;79.50
10344;DHT22;5217;43.960;10.954;2023-03-05T14:06:27;22.00;79.70
10344;DHT22;5217;43.960;10.954;2023-03-05T14:09:04;22.00;79.70
10344;DHT22;5217;43.960;10.954;2023-03-05T14:11:33;22.00;79.00
10344;DHT22;5217;43.960;10.954;2023-03-05T14:14:14;22.00;77.70
10344;DHT22;5217;43.960;10.954;2023-03-05T14:16:43;22.00;78.80
10344;DHT22;5217;43.960;10.954;2023-03-05T14:19:33;22.00;79.90
10344;DHT22;5217;43.960;10.954;2023-03-05T14:22:03;22.00;79.70
10344;DHT22;5217;43.960;10.954;2023-03-05T14:24:32;22.10;79.60
10344;DHT22;5217;43.960;10.954;2023-03-05T14:27:03;22.00;78.50
10344;DHT22;5217;43.960;10.954;2023-03-05T14:29:36;22.00;78.10
10344;DHT22;5217;43.960;10.954;2023-03-05T14:32:06;22.00;78.10
10344;DHT22;5217;43.960;10.954;2023-03-05T14:34:37;21.90;78.10
10344;DHT22;5217;43.960;10.954;2023-03-05T14:37:15;21.90;78.60
10344;DHT22;5217;43.960;10.954;2023-03-05T14:39:50;21.90;79.20
10344;DHT22;5217;43.960;10.954;2023-03-05T14:42:26;21.90;79.60
10344;DHT22;5217;43.960;10.954;2023-03-05T14:44:59;21.90;78.70
10344;DHT22;5217;43.960;10.954;2023-03-05T14:47:28;21.70;78.70
10344;DHT22;5217;43.960;10.954;2023-03-05T14:49:57;21.60;78.80
10344;DHT22;5217;43.960;10.954;2023-03-05T14:52:25;21.60;78.50
10344;DHT22;5217;43.960;10.954;2023-03-05T14:54:54;21.60;78.80
10344;DHT22;5217;43.960;10.954;2023-03-05T14:57:25;21.50;77.90
10344;DHT22;5217;43.960;10.954;2023-03-05T14:59:54;21.50;78.20
10344;DHT22;5217;43.960;10.954;2023-03-05T15:02:25;21.50;79.00
10344;DHT22;5217;43.960;10.954;2023-03-05T15:04:54;21.30;78.90
10344;DHT22;5217;43.960;10.954;2023-03-05T15:07:25;21.20;79.40
10344;DHT22;5217;43.960;10.954;2023-03-05T15:09:56;21.20;80.90
10344;DHT22;5217;43.960;10.954;2023-03-05T15:12:26;21.10;80.50
10344;DHT22;5217;43.960;10.954;2023-03-05T15:14:55;21.10;80.80
10344;DHT22;5217;43.960;10.954;2023-03-05T15:17:29;21.10;80.10
10344;DHT22;5217;43.960;10.954;2023-03-05T15:20:00;21.00;80.50
10344;DHT22;5217;43.960;10.954;2023-03-05T15:22:33;20.90;80.80
10344;DHT22;5217;43.960;10.954;2023-03-05T15:25:02;20.90;81.60
10344;DHT22;5217;43.960;10.954;2023-03-05T15:27:31;20.80;81.40
10344;DHT22;5217;43.960;10.954;2023-03-05T15:29:59;20.70;81.00
10344;DHT22;5217;43.960;10.954;2023-03-05T15:32:30;20.60;80.80
10344;DHT22;5217;43.960;10.954;2023-03-05T15:34:59;20.50;81.40
10344;DHT22;5217;43.960;10.954;2023-03-05T15:37:27;20.50;81.90
10344;DHT22;5217;43.960;10.954;2023-03-05T15:39:56;20.50;82.30
10344;DHT22;5217;43.960;10.954;2023-03-05T15:42:25;20.50;82.30
10344;DHT22;5217;43.960;10.954;2023-03-05T15:44:53;20.40;82.10
10344;DHT22;5217;43.960;10.954;2023-03-05T15:47:22;20.40;82.10
10344;DHT22;5217;43.960;10.954;2023-03-05T15:49:51;20.40;81.70
10344;DHT22;5217;43.960;10.954;2023-03-05T15:52:20;20.40;80.80
10344;DHT22;5217;43.960;10.954;2023-03-05T15:54:49;20.30;80.60
10344;DHT22;5217;43.960;10.954;2023-03-05T15:57:18;20.30;80.40
10344;DHT22;5217;43.960;10.954;2023-03-05T15:59:49;20.20;80.40
10344;DHT22;5217;43.960;10.954;2023-03-05T16:02:17;20.20;80.60
10344;DHT22;5217;43.960;10.954;2023-03-05T16:04:45;20.10;80.20
10344;DHT22;5217;43.960;10.954;2023-03-05T16:07:15;19.90;80.50